createdAt,value
2018-12-31T00:01:23.226Z,86.21
2018-12-31T00:03:49.514Z,86.35
2018-12-31T00:06:15.822Z,86.59
2018-12-31T00:08:42.143Z,86.54
2018-12-31T00:11:08.434Z,85.75
2018-12-31T00:13:34.734Z,85.07
2018-12-31T00:16:01.037Z,84.84
2018-12-31T00:18:27.310Z,85.15
2018-12-31T00:20:53.621Z,85.01
2018-12-31T00:23:19.935Z,84.84
2018-12-31T00:25:46.264Z,84.78
2018-12-31T00:28:12.560Z,84.56
2018-12-31T00:30:38.857Z,84.35
2018-12-31T00:33:05.156Z,84.52
2018-12-31T00:35:31.446Z,84.55
2018-12-31T00:37:57.745Z,84.21
2018-12-31T00:40:24.044Z,84.06
2018-12-31T00:42:50.356Z,83.92
2018-12-31T00:45:16.652Z,83.78
2018-12-31T00:47:42.946Z,83.57
2018-12-31T00:50:09.244Z,83.47
2018-12-31T00:52:35.632Z,83.16
2018-12-31T00:55:01.872Z,83.11
2018-12-31T00:57:28.155Z,83.17
2018-12-31T00:59:54.505Z,83.16
2018-12-31T01:02:20.804Z,83.01
2018-12-31T01:04:47.066Z,83.26
2018-12-31T01:07:13.370Z,83.45
2018-12-31T01:09:39.649Z,83.58
2018-12-31T01:12:05.958Z,83.78
2018-12-31T01:14:32.278Z,83.88
2018-12-31T01:16:58.565Z,83.75
2018-12-31T01:19:24.850Z,83.89
2018-12-31T01:21:51.126Z,83.83
2018-12-31T01:24:17.419Z,83.89
2018-12-31T01:26:43.713Z,83.78
2018-12-31T01:29:10.002Z,83.75
2018-12-31T01:31:36.343Z,83.82
2018-12-31T01:34:02.646Z,83.93
2018-12-31T01:36:28.938Z,84.07
2018-12-31T01:38:55.248Z,84.06
2018-12-31T01:41:21.526Z,84.42
2018-12-31T01:43:47.840Z,84.86
2018-12-31T01:46:14.112Z,84.79
2018-12-31T01:48:40.437Z,84.82
2018-12-31T01:51:11.288Z,84.93
2018-12-31T01:53:33.033Z,85.13
2018-12-31T01:55:59.312Z,84.96
2018-12-31T01:58:25.612Z,85.30
2018-12-31T02:00:51.933Z,85.17
2018-12-31T02:03:18.243Z,85.36
2018-12-31T02:05:44.531Z,85.17
2018-12-31T02:08:10.832Z,84.90
2018-12-31T02:10:37.130Z,84.83
2018-12-31T02:13:03.412Z,84.97
2018-12-31T02:15:29.696Z,84.87
2018-12-31T02:17:56.050Z,84.59
2018-12-31T02:20:22.339Z,84.66
2018-12-31T02:22:48.623Z,84.87
2018-12-31T02:25:14.933Z,85.16
2018-12-31T02:27:41.212Z,85.39
2018-12-31T02:30:07.536Z,85.79
2018-12-31T02:32:33.846Z,85.48
2018-12-31T02:35:00.151Z,85.50
2018-12-31T02:37:26.419Z,85.76
2018-12-31T02:39:52.703Z,85.54
2018-12-31T02:42:18.995Z,85.76
2018-12-31T02:44:45.271Z,85.77
2018-12-31T02:47:11.589Z,85.81
2018-12-31T02:49:37.886Z,85.95
2018-12-31T02:52:04.174Z,86.39
2018-12-31T02:54:30.454Z,86.85
2018-12-31T02:56:56.721Z,86.65
2018-12-31T02:59:23.024Z,86.46
2018-12-31T03:01:49.313Z,86.61
2018-12-31T03:04:15.612Z,86.12
2018-12-31T03:06:41.935Z,85.82
2018-12-31T03:09:08.213Z,85.69
2018-12-31T03:11:34.524Z,85.47
2018-12-31T03:14:00.828Z,85.40
2018-12-31T03:16:27.127Z,85.26
2018-12-31T03:18:53.420Z,85.06
2018-12-31T03:21:19.733Z,84.74
2018-12-31T03:23:46.006Z,84.58
2018-12-31T03:26:12.329Z,84.37
2018-12-31T03:28:38.600Z,84.33
2018-12-31T03:31:04.944Z,84.51
2018-12-31T03:33:31.276Z,84.48
2018-12-31T03:35:57.586Z,84.22
2018-12-31T03:38:23.866Z,83.95
2018-12-31T03:40:50.169Z,83.81
2018-12-31T03:43:16.509Z,83.91
2018-12-31T03:45:42.794Z,84.04
2018-12-31T03:48:09.079Z,84.32
2018-12-31T03:50:35.352Z,84.11
2018-12-31T03:53:01.648Z,83.96
2018-12-31T03:55:27.945Z,84.06
2018-12-31T03:57:54.229Z,83.48
2018-12-31T04:00:20.582Z,83.20
2018-12-31T04:02:47.049Z,83.47
2018-12-31T04:05:13.167Z,83.49
2018-12-31T04:07:39.519Z,83.50
2018-12-31T04:10:05.770Z,83.62
2018-12-31T04:12:32.091Z,83.34
2018-12-31T04:14:58.365Z,83.30
2018-12-31T04:17:24.701Z,83.43
2018-12-31T04:19:50.978Z,83.22
2018-12-31T04:22:17.280Z,83.44
2018-12-31T04:24:43.549Z,83.65
2018-12-31T04:27:09.844Z,83.61
2018-12-31T04:29:36.140Z,83.76
2018-12-31T04:32:02.433Z,83.51
2018-12-31T04:34:28.715Z,83.34
2018-12-31T04:36:55.039Z,83.56
2018-12-31T04:39:21.327Z,83.97
2018-12-31T04:41:47.612Z,84.17
2018-12-31T04:44:13.926Z,84.71
2018-12-31T04:46:40.203Z,84.43
2018-12-31T04:49:06.556Z,84.64
2018-12-31T04:51:32.843Z,84.82
2018-12-31T04:53:59.140Z,84.90
2018-12-31T04:56:25.418Z,85.48
2018-12-31T04:58:51.716Z,85.91
2018-12-31T05:01:18.027Z,86.45
2018-12-31T05:03:44.308Z,87.08
2018-12-31T05:06:10.598Z,87.90
2018-12-31T05:08:36.897Z,88.43
2018-12-31T05:11:03.167Z,88.83
2018-12-31T05:13:29.547Z,89.45
2018-12-31T05:15:55.846Z,89.52
2018-12-31T05:18:22.218Z,89.60
2018-12-31T05:20:48.544Z,89.92
2018-12-31T05:23:14.843Z,90.20
2018-12-31T05:25:41.182Z,90.41
2018-12-31T05:28:07.503Z,90.90
2018-12-31T05:30:33.874Z,91.03
2018-12-31T05:33:00.198Z,90.75
2018-12-31T05:35:26.601Z,91.22
2018-12-31T05:37:52.915Z,91.38
2018-12-31T05:40:19.221Z,91.34
2018-12-31T05:42:45.500Z,91.00
2018-12-31T05:45:11.822Z,90.85
2018-12-31T05:47:38.128Z,90.49
2018-12-31T05:50:04.427Z,90.59
2018-12-31T05:52:30.743Z,90.45
2018-12-31T05:54:57.093Z,90.53
2018-12-31T05:57:23.342Z,90.96
2018-12-31T05:59:49.662Z,90.85
2018-12-31T06:02:16.053Z,90.60
2018-12-31T06:04:42.373Z,90.63
2018-12-31T06:07:08.687Z,90.64
2018-12-31T06:09:35.025Z,90.34
2018-12-31T06:12:01.502Z,90.40
2018-12-31T06:14:27.772Z,90.68
2018-12-31T06:16:54.093Z,90.74
2018-12-31T06:19:20.424Z,90.67
2018-12-31T06:21:46.742Z,90.69
2018-12-31T06:24:13.012Z,90.71
2018-12-31T06:26:39.593Z,90.79
2018-12-31T06:29:06.099Z,90.92
2018-12-31T06:31:32.373Z,91.31
2018-12-31T06:33:58.805Z,91.39
2018-12-31T06:36:25.131Z,91.71
2018-12-31T06:38:51.428Z,92.08
2018-12-31T06:41:17.709Z,92.36
2018-12-31T06:43:44.058Z,92.67
2018-12-31T06:46:10.377Z,92.82
2018-12-31T06:48:36.679Z,92.83
2018-12-31T06:51:02.971Z,92.93
2018-12-31T06:53:29.262Z,92.95
2018-12-31T06:55:55.584Z,92.91
2018-12-31T06:58:21.876Z,92.83
2018-12-31T07:00:48.176Z,93.14
2018-12-31T07:03:14.490Z,93.20
2018-12-31T07:05:40.831Z,93.41
2018-12-31T07:08:07.163Z,93.51
2018-12-31T07:10:33.466Z,93.20
2018-12-31T07:12:59.769Z,92.92
2018-12-31T07:15:26.054Z,93.22
2018-12-31T07:17:52.398Z,93.03
2018-12-31T07:20:18.679Z,92.81
2018-12-31T07:22:44.992Z,92.65
2018-12-31T07:25:11.303Z,92.65
2018-12-31T07:27:37.630Z,92.34
2018-12-31T07:30:05.931Z,91.53
2018-12-31T07:32:32.218Z,91.76
2018-12-31T07:34:58.534Z,92.13
2018-12-31T07:37:24.864Z,92.32
2018-12-31T07:39:51.161Z,92.30
2018-12-31T07:42:17.483Z,92.78
2018-12-31T07:44:43.736Z,93.02
2018-12-31T07:47:10.063Z,93.14
2018-12-31T07:49:36.383Z,93.12
2018-12-31T07:52:02.707Z,92.93
2018-12-31T07:54:29.004Z,92.01
2018-12-31T07:56:55.618Z,91.37
2018-12-31T07:59:21.949Z,91.05
2018-12-31T08:01:48.313Z,91.33
2018-12-31T08:04:16.074Z,90.98
2018-12-31T08:06:41.177Z,91.21
2018-12-31T08:09:07.567Z,90.91
2018-12-31T08:11:33.969Z,91.05
2018-12-31T08:14:00.274Z,91.44
2018-12-31T08:16:26.563Z,91.10
2018-12-31T08:18:52.950Z,91.38
2018-12-31T08:21:19.258Z,91.99
2018-12-31T08:23:45.574Z,92.30
2018-12-31T08:26:11.909Z,92.88
2018-12-31T08:28:38.283Z,92.11
2018-12-31T08:31:04.556Z,91.98
2018-12-31T08:33:30.840Z,92.04
2018-12-31T08:35:57.186Z,92.37
2018-12-31T08:38:23.495Z,92.72
2018-12-31T08:40:49.783Z,93.62
2018-12-31T08:43:16.112Z,94.16
2018-12-31T08:45:42.399Z,94.02
2018-12-31T08:48:08.742Z,93.39
2018-12-31T08:50:35.122Z,92.76
2018-12-31T08:53:01.424Z,93.14
2018-12-31T08:55:27.729Z,93.63
2018-12-31T08:57:54.055Z,93.30
2018-12-31T09:00:20.357Z,93.03
2018-12-31T09:02:46.629Z,92.70
2018-12-31T09:05:12.928Z,92.57
2018-12-31T09:07:39.219Z,92.55
2018-12-31T09:10:05.515Z,92.18
2018-12-31T09:12:31.833Z,92.14
2018-12-31T09:14:58.167Z,91.74
2018-12-31T09:17:24.466Z,91.43
2018-12-31T09:19:50.777Z,91.12
2018-12-31T09:22:17.073Z,91.20
2018-12-31T09:24:44.757Z,91.13
2018-12-31T09:27:09.711Z,90.92
2018-12-31T09:29:36.040Z,90.66
2018-12-31T09:32:02.320Z,90.42
2018-12-31T09:34:28.623Z,90.49
2018-12-31T09:36:54.918Z,90.42
2018-12-31T09:39:21.602Z,91.16
2018-12-31T09:41:47.959Z,90.10
2018-12-31T09:44:14.316Z,89.29
2018-12-31T09:46:40.721Z,89.07
2018-12-31T09:49:06.998Z,89.34
2018-12-31T09:51:33.308Z,89.41
2018-12-31T09:53:59.614Z,89.57
2018-12-31T09:56:26.117Z,88.98
2018-12-31T09:59:03.511Z,88.42
2018-12-31T10:01:29.867Z,88.30
2018-12-31T10:03:56.369Z,88.19
2018-12-31T10:06:22.748Z,87.57
2018-12-31T10:08:49.447Z,87.06
2018-12-31T10:11:15.404Z,86.12
2018-12-31T10:13:41.723Z,85.95
2018-12-31T10:16:08.073Z,85.32
2018-12-31T10:18:34.345Z,83.26
2018-12-31T10:21:00.613Z,84.42
2018-12-31T10:23:26.917Z,83.31
2018-12-31T10:25:53.204Z,83.90
2018-12-31T10:28:19.610Z,83.27
2018-12-31T10:30:45.911Z,82.12
2018-12-31T10:33:12.237Z,81.14
2018-12-31T10:35:42.910Z,80.16
2018-12-31T10:38:09.428Z,80.01
2018-12-31T10:40:36.772Z,80.79
2018-12-31T10:43:03.258Z,80.21
2018-12-31T10:45:29.562Z,80.46
2018-12-31T10:47:57.587Z,79.84
2018-12-31T10:50:24.666Z,80.09
2018-12-31T10:52:52.916Z,79.76
2018-12-31T10:55:19.385Z,79.38
2018-12-31T10:57:46.061Z,80.46
2018-12-31T11:00:12.588Z,80.05
2018-12-31T11:02:41.698Z,80.78
2018-12-31T11:05:08.068Z,80.38
2018-12-31T11:07:34.579Z,80.79
2018-12-31T11:10:00.944Z,80.15
2018-12-31T11:12:28.046Z,79.82
2018-12-31T11:14:54.290Z,80.15
2018-12-31T11:17:20.589Z,79.67
2018-12-31T11:19:47.445Z,80.10
2018-12-31T11:22:13.939Z,78.86
2018-12-31T11:24:40.951Z,79.54
2018-12-31T11:27:07.306Z,79.66
2018-12-31T11:29:33.594Z,79.22
2018-12-31T11:31:59.960Z,79.22
2018-12-31T11:34:26.358Z,79.98
2018-12-31T11:36:55.275Z,79.93
2018-12-31T11:39:21.880Z,80.97
2018-12-31T11:41:48.757Z,80.43
2018-12-31T11:44:22.165Z,78.71
2018-12-31T11:46:48.415Z,79.64
2018-12-31T11:49:14.708Z,78.74
2018-12-31T11:51:41.007Z,78.93
2018-12-31T11:54:07.307Z,77.85
2018-12-31T11:56:33.618Z,78.60
2018-12-31T11:58:59.916Z,77.92
2018-12-31T12:01:26.314Z,78.13
2018-12-31T12:03:52.572Z,78.57
2018-12-31T12:06:18.899Z,78.67
2018-12-31T12:08:45.193Z,78.79
2018-12-31T12:11:11.491Z,79.53
2018-12-31T12:13:37.774Z,79.07
2018-12-31T12:16:21.520Z,78.21
2018-12-31T12:18:47.868Z,78.89
2018-12-31T12:21:14.351Z,78.79
2018-12-31T12:23:40.820Z,78.20
2018-12-31T12:26:07.207Z,78.92
2018-12-31T12:28:33.619Z,78.18
2018-12-31T12:30:59.901Z,78.26
2018-12-31T12:33:26.206Z,78.05
2018-12-31T12:35:52.561Z,78.92
2018-12-31T12:38:18.821Z,78.24
2018-12-31T12:40:45.149Z,79.57
2018-12-31T12:43:11.454Z,78.51
2018-12-31T12:45:37.791Z,78.60
2018-12-31T12:48:04.109Z,78.27
2018-12-31T12:50:30.453Z,78.78
2018-12-31T12:52:56.922Z,78.74
2018-12-31T12:55:23.860Z,78.04
2018-12-31T12:57:50.212Z,78.62
2018-12-31T13:00:16.542Z,78.63
2018-12-31T13:02:42.829Z,78.30
2018-12-31T13:05:09.112Z,78.92
2018-12-31T13:07:37.773Z,78.43
2018-12-31T13:10:04.067Z,78.44
2018-12-31T13:12:30.465Z,78.66
2018-12-31T13:14:56.886Z,78.95
2018-12-31T13:17:23.496Z,78.69
2018-12-31T13:19:49.892Z,78.45
2018-12-31T13:22:16.175Z,78.06
2018-12-31T13:24:42.509Z,78.54
2018-12-31T13:27:08.797Z,78.25
2018-12-31T13:29:35.134Z,78.55
2018-12-31T13:32:01.411Z,78.56
2018-12-31T13:34:27.850Z,78.45
2018-12-31T13:36:54.143Z,79.26
2018-12-31T13:39:20.453Z,78.93
2018-12-31T13:41:46.740Z,78.87
2018-12-31T13:44:13.037Z,79.25
2018-12-31T13:46:39.333Z,79.42
2018-12-31T13:49:05.851Z,79.43
2018-12-31T13:51:32.128Z,80.09
2018-12-31T13:53:58.451Z,79.74
2018-12-31T13:56:24.734Z,79.32
2018-12-31T13:58:51.034Z,79.63
2018-12-31T14:01:17.338Z,79.37
2018-12-31T14:03:43.641Z,80.09
2018-12-31T14:06:09.972Z,79.82
2018-12-31T14:08:36.286Z,79.81
2018-12-31T14:11:02.568Z,79.30
2018-12-31T14:13:28.888Z,79.74
2018-12-31T14:15:55.194Z,79.98
2018-12-31T14:18:21.587Z,79.72
2018-12-31T14:20:47.953Z,79.69
2018-12-31T14:23:14.296Z,79.69
2018-12-31T14:25:40.598Z,79.93
2018-12-31T14:28:06.871Z,80.17
2018-12-31T14:30:33.363Z,80.24
2018-12-31T14:32:59.681Z,80.13
2018-12-31T14:35:26.149Z,79.68
2018-12-31T14:37:52.506Z,79.82
2018-12-31T14:40:18.795Z,80.32
2018-12-31T14:42:45.093Z,80.00
2018-12-31T14:45:11.396Z,80.63
2018-12-31T14:47:37.711Z,80.83
2018-12-31T14:50:03.997Z,80.81
2018-12-31T14:52:30.281Z,80.29
2018-12-31T14:54:56.587Z,80.70
2018-12-31T14:57:22.880Z,80.73
2018-12-31T14:59:49.207Z,80.99
2018-12-31T15:02:15.522Z,81.47
2018-12-31T15:04:41.795Z,81.59
2018-12-31T15:07:08.073Z,81.86
2018-12-31T15:09:34.363Z,84.11
2018-12-31T15:12:00.946Z,82.45
2018-12-31T15:14:27.263Z,84.13
2018-12-31T15:16:53.543Z,80.83
2018-12-31T15:19:19.820Z,81.81
2018-12-31T15:21:46.107Z,81.04
2018-12-31T15:24:12.409Z,80.51
2018-12-31T15:26:38.697Z,80.40
2018-12-31T15:29:05.042Z,78.94
2018-12-31T15:31:31.328Z,79.43
2018-12-31T15:33:57.682Z,79.96
2018-12-31T15:36:23.940Z,80.82
2018-12-31T15:38:50.267Z,81.04
2018-12-31T15:41:16.586Z,81.28
2018-12-31T15:43:42.884Z,81.68
2018-12-31T15:46:09.196Z,82.83
2018-12-31T15:48:35.606Z,82.55
2018-12-31T15:51:01.889Z,82.57
2018-12-31T15:53:28.186Z,82.41
2018-12-31T15:55:54.500Z,82.86
2018-12-31T15:58:20.784Z,82.64
2018-12-31T16:00:47.076Z,82.62
2018-12-31T16:03:13.340Z,83.26
2018-12-31T16:05:39.682Z,82.98
2018-12-31T16:08:06.013Z,83.77
2018-12-31T16:10:32.359Z,83.74
2018-12-31T16:12:58.669Z,82.78
2018-12-31T16:15:25.083Z,83.14
2018-12-31T16:17:51.812Z,82.68
2018-12-31T16:20:18.182Z,83.23
2018-12-31T16:22:44.813Z,83.73
2018-12-31T16:25:11.383Z,83.61
2018-12-31T16:27:37.897Z,83.37
2018-12-31T16:30:09.495Z,83.13
2018-12-31T16:32:36.319Z,83.22
2018-12-31T16:35:02.855Z,83.32
2018-12-31T16:37:29.259Z,83.28
2018-12-31T16:40:03.951Z,83.16
2018-12-31T16:42:29.635Z,83.20
2018-12-31T16:44:56.509Z,83.47
2018-12-31T16:50:03.061Z,83.53
2018-12-31T16:52:29.351Z,83.17
2018-12-31T16:54:55.634Z,83.02
2018-12-31T16:57:21.949Z,83.17
2018-12-31T16:59:48.246Z,83.18
2018-12-31T17:02:14.543Z,83.35
2018-12-31T17:04:40.826Z,83.18
2018-12-31T17:07:07.121Z,83.36
2018-12-31T17:09:33.398Z,83.29
2018-12-31T17:11:59.722Z,82.84
2018-12-31T17:14:25.994Z,82.98
2018-12-31T17:16:52.278Z,87.40
2018-12-31T17:19:18.568Z,83.98
2018-12-31T17:21:44.839Z,83.29
2018-12-31T17:24:11.129Z,82.71
2018-12-31T17:26:37.440Z,83.27
2018-12-31T17:29:03.800Z,83.16
2018-12-31T17:31:30.120Z,83.54
2018-12-31T17:33:56.408Z,83.54
2018-12-31T17:36:22.697Z,83.73
2018-12-31T17:38:49.104Z,83.81
2018-12-31T17:41:15.283Z,84.22
2018-12-31T17:43:41.562Z,83.86
2018-12-31T17:46:07.856Z,83.80
2018-12-31T17:48:34.169Z,84.13
2018-12-31T17:51:00.475Z,84.06
2018-12-31T17:53:26.751Z,83.70
2018-12-31T17:55:53.048Z,84.05
2018-12-31T17:58:19.342Z,84.18
2018-12-31T18:00:45.669Z,84.10
2018-12-31T18:03:11.954Z,84.01
2018-12-31T18:05:38.265Z,84.19
2018-12-31T18:08:04.567Z,84.43
2018-12-31T18:10:30.867Z,84.59
2018-12-31T18:12:57.151Z,84.81
2018-12-31T18:15:23.463Z,84.71
2018-12-31T18:17:49.780Z,84.77
2018-12-31T18:20:16.069Z,84.69
2018-12-31T18:22:42.363Z,85.01
2018-12-31T18:25:08.826Z,85.42
2018-12-31T18:27:35.111Z,85.18
2018-12-31T18:30:01.439Z,85.30
2018-12-31T18:32:27.719Z,85.34
2018-12-31T18:34:54.013Z,85.24
2018-12-31T18:37:20.334Z,85.30
2018-12-31T18:39:49.490Z,85.75
2018-12-31T18:42:12.932Z,86.04
2018-12-31T18:44:39.260Z,85.90
2018-12-31T18:47:05.551Z,85.68
2018-12-31T18:49:31.849Z,86.06
2018-12-31T18:51:58.137Z,85.91
2018-12-31T18:54:24.423Z,86.32
2018-12-31T18:56:50.719Z,86.29
2018-12-31T18:59:17.043Z,85.70
2018-12-31T19:01:43.358Z,85.47
2018-12-31T19:04:09.619Z,85.77
2018-12-31T19:06:35.937Z,86.45
2018-12-31T19:09:02.178Z,86.63
2018-12-31T19:11:28.519Z,86.27
2018-12-31T19:13:54.816Z,86.38
2018-12-31T19:16:21.095Z,86.68
2018-12-31T19:18:47.390Z,86.46
2018-12-31T19:21:13.672Z,86.26
2018-12-31T19:23:39.947Z,85.86
2018-12-31T19:26:06.224Z,86.21
2018-12-31T19:28:32.530Z,86.09
2018-12-31T19:30:58.810Z,86.16
2018-12-31T19:33:25.106Z,86.29
2018-12-31T19:35:51.411Z,86.67
2018-12-31T19:38:17.683Z,86.45
2018-12-31T19:40:43.983Z,86.24
2018-12-31T19:43:10.260Z,86.57
2018-12-31T19:45:36.551Z,86.05
2018-12-31T19:48:02.885Z,85.78
2018-12-31T19:50:29.163Z,85.77
2018-12-31T19:52:55.455Z,86.19
2018-12-31T19:55:21.756Z,86.50
2018-12-31T19:57:48.047Z,86.49
2018-12-31T20:00:14.347Z,86.59
2018-12-31T20:02:40.641Z,86.62
2018-12-31T20:05:06.919Z,86.64
2018-12-31T20:07:33.228Z,86.80
2018-12-31T20:09:59.518Z,87.06
2018-12-31T20:12:25.839Z,87.19
2018-12-31T20:14:52.124Z,87.12
2018-12-31T20:17:18.432Z,87.12
2018-12-31T20:19:44.710Z,87.35
2018-12-31T20:22:11.034Z,87.09
2018-12-31T20:24:37.322Z,87.02
2018-12-31T20:27:03.592Z,87.02
2018-12-31T20:29:29.906Z,87.17
2018-12-31T20:31:56.345Z,87.12
2018-12-31T20:34:22.558Z,87.28
2018-12-31T20:36:48.832Z,87.26
2018-12-31T20:39:15.127Z,87.39
2018-12-31T20:41:41.430Z,87.67
2018-12-31T20:44:07.751Z,87.73
2018-12-31T20:46:34.002Z,88.30
2018-12-31T20:49:00.301Z,88.46
2018-12-31T20:51:26.588Z,88.32
2018-12-31T20:53:52.884Z,88.23
2018-12-31T20:56:19.155Z,88.47
2018-12-31T20:58:45.476Z,88.34
2018-12-31T21:01:11.765Z,88.01
2018-12-31T21:03:38.063Z,88.40
2018-12-31T21:06:04.404Z,88.54
2018-12-31T21:08:30.683Z,88.65
2018-12-31T21:10:56.968Z,88.67
2018-12-31T21:13:23.247Z,88.59
2018-12-31T21:15:49.538Z,88.95
2018-12-31T21:18:15.839Z,89.09
2018-12-31T21:20:42.118Z,89.49
2018-12-31T21:23:08.442Z,89.35
2018-12-31T21:25:34.728Z,89.55
2018-12-31T21:28:01.019Z,90.19
2018-12-31T21:30:27.313Z,89.86
2018-12-31T21:32:53.589Z,89.83
2018-12-31T21:35:19.881Z,90.12
2018-12-31T21:37:46.161Z,90.54
2018-12-31T21:40:12.433Z,91.07
2018-12-31T21:42:38.786Z,91.26
2018-12-31T21:45:05.079Z,91.47
2018-12-31T21:47:31.359Z,91.76
2018-12-31T21:49:57.644Z,92.31
2018-12-31T21:52:23.938Z,92.42
2018-12-31T21:54:50.209Z,92.41
2018-12-31T21:57:18.128Z,92.23
2018-12-31T21:59:42.790Z,92.15
2018-12-31T22:02:09.099Z,93.96
2018-12-31T22:04:35.401Z,94.21
2018-12-31T22:07:01.746Z,92.76
2018-12-31T22:09:28.015Z,92.34
2018-12-31T22:11:54.289Z,92.04
2018-12-31T22:14:20.601Z,91.73
2018-12-31T22:16:46.903Z,91.61
2018-12-31T22:19:13.192Z,91.68
2018-12-31T22:21:39.482Z,91.69
2018-12-31T22:24:05.805Z,91.72
2018-12-31T22:26:32.080Z,91.81
2018-12-31T22:28:58.371Z,92.25
2018-12-31T22:31:24.666Z,92.38
2018-12-31T22:33:50.956Z,92.39
2018-12-31T22:36:17.286Z,92.62
2018-12-31T22:38:43.567Z,93.29
2018-12-31T22:41:09.840Z,93.45
2018-12-31T22:43:36.141Z,93.62
2018-12-31T22:46:02.437Z,93.62
2018-12-31T22:48:28.734Z,93.73
2018-12-31T22:50:55.017Z,93.56
2018-12-31T22:53:21.313Z,93.58
2018-12-31T22:55:47.599Z,93.77
2018-12-31T22:58:13.864Z,93.77
2018-12-31T23:00:40.148Z,93.62
2018-12-31T23:03:06.442Z,93.72
2018-12-31T23:05:32.762Z,93.94
2018-12-31T23:07:59.049Z,93.98
2018-12-31T23:10:25.321Z,93.94
2018-12-31T23:12:51.600Z,94.08
2018-12-31T23:15:17.900Z,94.12
2018-12-31T23:17:44.198Z,94.16
2018-12-31T23:20:10.482Z,94.06
2018-12-31T23:22:36.789Z,94.16
2018-12-31T23:25:03.065Z,94.28
2018-12-31T23:27:29.345Z,94.18
2018-12-31T23:29:55.653Z,94.20
2018-12-31T23:32:21.961Z,94.25
2018-12-31T23:34:48.246Z,94.34
2018-12-31T23:37:14.556Z,94.12
2018-12-31T23:39:40.835Z,94.23
2018-12-31T23:42:07.329Z,94.25
2018-12-31T23:44:33.553Z,94.69
2018-12-31T23:46:59.861Z,94.89
2018-12-31T23:49:26.186Z,94.80
2018-12-31T23:51:52.469Z,95.18
2018-12-31T23:54:18.782Z,95.38
2018-12-31T23:56:45.142Z,95.54
2018-12-31T23:59:11.422Z,95.49
